sensor_id;sensor_type;location;lat;lon;timestamp;pressure;altitude;pressure_sealevel;temperature;humidity
72612;BME280;60655;52.182;4.474;2022-10-30T00:01:50;101676.19;;;16.55;80.36
72612;BME280;60655;52.182;4.474;2022-10-30T00:03:51;101691.50;;;16.66;80.30
72612;BME280;60655;52.182;4.474;2022-10-30T00:05:52;101698.03;;;16.70;80.14
72612;BME280;60655;52.182;4.474;2022-10-30T00:07:57;101713.16;;;16.53;80.67
72612;BME280;60655;52.182;4.474;2022-10-30T00:09:59;101714.00;;;16.42;81.29
72612;BME280;60655;52.182;4.474;2022-10-30T00:12:00;101706.66;;;16.37;81.17
72612;BME280;60655;52.182;4.474;2022-10-30T00:14:02;101699.88;;;16.35;81.39
72612;BME280;60655;52.182;4.474;2022-10-30T00:16:05;101699.28;;;16.33;81.29
72612;BME280;60655;52.182;4.474;2022-10-30T00:18:06;101713.41;;;16.40;81.31
72612;BME280;60655;52.182;4.474;2022-10-30T00:20:08;101711.31;;;16.42;81.28
72612;BME280;60655;52.182;4.474;2022-10-30T00:22:09;101707.69;;;16.48;81.18
72612;BME280;60655;52.182;4.474;2022-10-30T00:24:10;101698.50;;;16.44;81.05
72612;BME280;60655;52.182;4.474;2022-10-30T00:26:11;101713.63;;;16.62;80.79
72612;BME280;60655;52.182;4.474;2022-10-30T00:28:12;101713.41;;;16.40;81.42
72612;BME280;60655;52.182;4.474;2022-10-30T00:30:13;101714.09;;;16.47;81.23
72612;BME280;60655;52.182;4.474;2022-10-30T00:32:15;101726.44;;;16.48;81.30
72612;BME280;60655;52.182;4.474;2022-10-30T00:34:18;101723.88;;;16.53;81.27
72612;BME280;60655;52.182;4.474;2022-10-30T00:36:20;101720.88;;;16.61;80.91
72612;BME280;60655;52.182;4.474;2022-10-30T00:38:21;101705.00;;;16.48;81.06
72612;BME280;60655;52.182;4.474;2022-10-30T00:40:22;101716.22;;;16.45;81.64
72612;BME280;60655;52.182;4.474;2022-10-30T00:42:28;101712.81;;;16.49;81.54
72612;BME280;60655;52.182;4.474;2022-10-30T00:46:38;101713.53;;;16.45;81.53
72612;BME280;60655;52.182;4.474;2022-10-30T00:48:42;101705.13;;;16.41;81.55
72612;BME280;60655;52.182;4.474;2022-10-30T00:50:44;101711.78;;;16.39;81.76
72612;BME280;60655;52.182;4.474;2022-10-30T00:52:50;101700.44;;;16.25;81.62
72612;BME280;60655;52.182;4.474;2022-10-30T00:54:53;101715.63;;;16.31;81.51
72612;BME280;60655;52.182;4.474;2022-10-30T00:56:56;101716.53;;;16.25;81.83
72612;BME280;60655;52.182;4.474;2022-10-30T00:59:03;101704.63;;;16.21;81.80
72612;BME280;60655;52.182;4.474;2022-10-30T01:01:09;101712.44;;;16.23;81.55
72612;BME280;60655;52.182;4.474;2022-10-30T01:03:11;101711.88;;;16.20;81.88
72612;BME280;60655;52.182;4.474;2022-10-30T01:05:14;101712.69;;;16.21;81.55
72612;BME280;60655;52.182;4.474;2022-10-30T01:07:17;101711.66;;;16.10;81.23
72612;BME280;60655;52.182;4.474;2022-10-30T01:09:18;101721.75;;;15.97;82.59
72612;BME280;60655;52.182;4.474;2022-10-30T01:11:20;101710.34;;;16.01;82.02
72612;BME280;60655;52.182;4.474;2022-10-30T01:13:21;101713.81;;;15.90;82.55
72612;BME280;60655;52.182;4.474;2022-10-30T01:15:29;101719.78;;;16.04;82.41
72612;BME280;60655;52.182;4.474;2022-10-30T01:17:55;101722.19;;;15.94;82.62
72612;BME280;60655;52.182;4.474;2022-10-30T01:22:16;101729.41;;;15.81;83.12
72612;BME280;60655;52.182;4.474;2022-10-30T01:26:59;101734.53;;;15.83;82.99
72612;BME280;60655;52.182;4.474;2022-10-30T01:31:28;101727.03;;;15.73;83.55
72612;BME280;60655;52.182;4.474;2022-10-30T01:33:45;101731.22;;;15.69;83.52
72612;BME280;60655;52.182;4.474;2022-10-30T01:35:59;101734.91;;;15.57;84.44
72612;BME280;60655;52.182;4.474;2022-10-30T01:38:05;101740.63;;;15.60;84.31
72612;BME280;60655;52.182;4.474;2022-10-30T01:40:13;101740.53;;;15.67;84.10
72612;BME280;60655;52.182;4.474;2022-10-30T01:42:43;101735.41;;;15.47;85.36
72612;BME280;60655;52.182;4.474;2022-10-30T01:44:45;101735.34;;;15.53;84.49
72612;BME280;60655;52.182;4.474;2022-10-30T01:49:21;101750.00;;;15.51;84.66
72612;BME280;60655;52.182;4.474;2022-10-30T02:00:57;101736.72;;;15.26;85.38
72612;BME280;60655;52.182;4.474;2022-10-30T02:02:59;101743.28;;;15.30;85.42
72612;BME280;60655;52.182;4.474;2022-10-30T02:05:05;101736.16;;;15.36;85.16
72612;BME280;60655;52.182;4.474;2022-10-30T02:07:07;101747.00;;;15.29;85.31
72612;BME280;60655;52.182;4.474;2022-10-30T02:09:09;101745.66;;;15.20;85.95
72612;BME280;60655;52.182;4.474;2022-10-30T02:11:10;101721.94;;;15.05;86.24
72612;BME280;60655;52.182;4.474;2022-10-30T02:13:12;101716.34;;;15.07;85.94
72612;BME280;60655;52.182;4.474;2022-10-30T02:15:14;101731.00;;;15.23;85.43
72612;BME280;60655;52.182;4.474;2022-10-30T02:17:15;101723.19;;;15.03;86.02
72612;BME280;60655;52.182;4.474;2022-10-30T02:19:17;101715.09;;;15.09;85.60
72612;BME280;60655;52.182;4.474;2022-10-30T02:21:19;101725.44;;;15.24;84.77
72612;BME280;60655;52.182;4.474;2022-10-30T02:23:20;101721.84;;;15.12;85.19
72612;BME280;60655;52.182;4.474;2022-10-30T02:25:22;101741.19;;;15.14;85.55
72612;BME280;60655;52.182;4.474;2022-10-30T02:27:23;101714.88;;;14.93;84.81
72612;BME280;60655;52.182;4.474;2022-10-30T02:29:24;101741.81;;;14.98;85.56
72612;BME280;60655;52.182;4.474;2022-10-30T02:31:25;101749.88;;;15.09;85.14
72612;BME280;60655;52.182;4.474;2022-10-30T02:33:27;101751.25;;;15.00;85.36
72612;BME280;60655;52.182;4.474;2022-10-30T02:35:28;101754.34;;;14.97;85.37
72612;BME280;60655;52.182;4.474;2022-10-30T02:37:30;101754.09;;;14.80;86.29
72612;BME280;60655;52.182;4.474;2022-10-30T02:39:32;101755.25;;;14.91;85.58
72612;BME280;60655;52.182;4.474;2022-10-30T02:41:33;101748.31;;;14.83;85.57
72612;BME280;60655;52.182;4.474;2022-10-30T02:43:34;101745.47;;;14.78;86.17
72612;BME280;60655;52.182;4.474;2022-10-30T02:45:35;101755.16;;;14.79;86.54
72612;BME280;60655;52.182;4.474;2022-10-30T02:47:36;101757.59;;;14.81;86.21
72612;BME280;60655;52.182;4.474;2022-10-30T02:49:38;101761.69;;;14.83;85.93
72612;BME280;60655;52.182;4.474;2022-10-30T02:51:39;101759.94;;;14.96;85.17
72612;BME280;60655;52.182;4.474;2022-10-30T02:53:40;101741.81;;;14.73;85.31
72612;BME280;60655;52.182;4.474;2022-10-30T02:55:41;101765.91;;;14.73;85.71
72612;BME280;60655;52.182;4.474;2022-10-30T02:57:42;101750.66;;;14.73;85.58
72612;BME280;60655;52.182;4.474;2022-10-30T02:59:43;101760.81;;;14.71;85.76
72612;BME280;60655;52.182;4.474;2022-10-30T03:01:44;101760.16;;;14.94;84.92
72612;BME280;60655;52.182;4.474;2022-10-30T03:03:45;101757.22;;;14.77;85.06
72612;BME280;60655;52.182;4.474;2022-10-30T03:05:46;101750.63;;;14.80;85.35
72612;BME280;60655;52.182;4.474;2022-10-30T03:07:47;101753.59;;;14.72;85.92
72612;BME280;60655;52.182;4.474;2022-10-30T03:09:48;101742.75;;;14.67;86.58
72612;BME280;60655;52.182;4.474;2022-10-30T03:11:49;101733.06;;;14.66;86.01
72612;BME280;60655;52.182;4.474;2022-10-30T03:13:51;101739.09;;;14.61;86.28
72612;BME280;60655;52.182;4.474;2022-10-30T03:15:51;101739.47;;;14.65;86.11
72612;BME280;60655;52.182;4.474;2022-10-30T03:17:53;101722.56;;;14.46;86.30
72612;BME280;60655;52.182;4.474;2022-10-30T03:19:54;101737.72;;;14.52;86.41
72612;BME280;60655;52.182;4.474;2022-10-30T03:21:54;101734.63;;;14.55;87.03
72612;BME280;60655;52.182;4.474;2022-10-30T03:23:56;101753.16;;;14.50;87.11
72612;BME280;60655;52.182;4.474;2022-10-30T03:25:57;101750.66;;;14.55;86.94
72612;BME280;60655;52.182;4.474;2022-10-30T03:27:59;101730.28;;;14.54;86.80
72612;BME280;60655;52.182;4.474;2022-10-30T03:30:00;101740.28;;;14.65;86.05
72612;BME280;60655;52.182;4.474;2022-10-30T03:32:01;101719.75;;;14.34;86.51
72612;BME280;60655;52.182;4.474;2022-10-30T03:34:01;101739.88;;;14.43;86.72
72612;BME280;60655;52.182;4.474;2022-10-30T03:36:04;101743.28;;;14.50;86.51
72612;BME280;60655;52.182;4.474;2022-10-30T03:38:27;101743.59;;;14.42;87.16
72612;BME280;60655;52.182;4.474;2022-10-30T03:40:28;101735.59;;;14.36;87.25
72612;BME280;60655;52.182;4.474;2022-10-30T03:42:50;101742.69;;;14.48;86.65
72612;BME280;60655;52.182;4.474;2022-10-30T03:44:51;101735.31;;;14.44;86.28
72612;BME280;60655;52.182;4.474;2022-10-30T03:47:11;101748.13;;;14.35;87.17
72612;BME280;60655;52.182;4.474;2022-10-30T03:49:12;101758.00;;;14.35;87.66
72612;BME280;60655;52.182;4.474;2022-10-30T03:51:15;101751.34;;;14.44;87.47
72612;BME280;60655;52.182;4.474;2022-10-30T03:53:16;101750.31;;;14.45;87.26
72612;BME280;60655;52.182;4.474;2022-10-30T03:55:17;101749.97;;;14.41;86.79
72612;BME280;60655;52.182;4.474;2022-10-30T03:57:18;101740.53;;;14.32;86.75
72612;BME280;60655;52.182;4.474;2022-10-30T03:59:19;101748.78;;;14.31;87.00
72612;BME280;60655;52.182;4.474;2022-10-30T04:01:20;101751.66;;;14.29;87.39
72612;BME280;60655;52.182;4.474;2022-10-30T04:03:21;101754.13;;;14.31;87.67
72612;BME280;60655;52.182;4.474;2022-10-30T04:05:23;101756.38;;;14.34;87.66
72612;BME280;60655;52.182;4.474;2022-10-30T04:07:24;101743.88;;;14.28;87.40
72612;BME280;60655;52.182;4.474;2022-10-30T04:09:26;101751.34;;;14.44;86.91
72612;BME280;60655;52.182;4.474;2022-10-30T04:11:27;101755.16;;;14.30;87.29
72612;BME280;60655;52.182;4.474;2022-10-30T04:13:28;101756.84;;;14.24;87.57
72612;BME280;60655;52.182;4.474;2022-10-30T04:15:29;101753.56;;;14.22;88.25
72612;BME280;60655;52.182;4.474;2022-10-30T04:17:30;101753.69;;;14.34;87.57
72612;BME280;60655;52.182;4.474;2022-10-30T04:19:31;101751.03;;;14.34;87.16
72612;BME280;60655;52.182;4.474;2022-10-30T04:21:32;101744.47;;;14.30;87.29
72612;BME280;60655;52.182;4.474;2022-10-30T04:23:33;101742.34;;;14.38;87.56
72612;BME280;60655;52.182;4.474;2022-10-30T04:25:35;101748.53;;;14.39;87.18
72612;BME280;60655;52.182;4.474;2022-10-30T04:27:43;101731.75;;;14.25;87.63
72612;BME280;60655;52.182;4.474;2022-10-30T04:29:44;101741.19;;;14.28;87.92
72612;BME280;60655;52.182;4.474;2022-10-30T04:31:47;101739.56;;;14.27;88.35
72612;BME280;60655;52.182;4.474;2022-10-30T04:33:48;101733.34;;;14.33;87.99
72612;BME280;60655;52.182;4.474;2022-10-30T04:35:49;101738.09;;;14.31;87.37
72612;BME280;60655;52.182;4.474;2022-10-30T04:37:54;101731.31;;;14.28;87.21
72612;BME280;60655;52.182;4.474;2022-10-30T04:39:55;101732.97;;;14.29;86.88
72612;BME280;60655;52.182;4.474;2022-10-30T04:41:56;101727.56;;;14.36;86.85
72612;BME280;60655;52.182;4.474;2022-10-30T04:43:57;101724.72;;;14.31;87.38
72612;BME280;60655;52.182;4.474;2022-10-30T04:45:58;101682.78;;;14.06;87.23
72612;BME280;60655;52.182;4.474;2022-10-30T04:48:05;101706.88;;;14.25;87.35
72612;BME280;60655;52.182;4.474;2022-10-30T04:50:07;101712.50;;;14.16;88.64
72612;BME280;60655;52.182;4.474;2022-10-30T04:52:08;101716.06;;;14.35;88.20
72612;BME280;60655;52.182;4.474;2022-10-30T04:54:09;101710.06;;;14.40;88.29
72612;BME280;60655;52.182;4.474;2022-10-30T04:56:10;101723.31;;;14.53;87.92
72612;BME280;60655;52.182;4.474;2022-10-30T04:58:12;101708.00;;;14.42;87.83
72612;BME280;60655;52.182;4.474;2022-10-30T05:00:13;101714.75;;;14.44;87.34
72612;BME280;60655;52.182;4.474;2022-10-30T05:02:15;101734.34;;;14.38;88.09
72612;BME280;60655;52.182;4.474;2022-10-30T05:04:15;101731.66;;;14.38;87.72
72612;BME280;60655;52.182;4.474;2022-10-30T05:06:24;101722.59;;;14.39;87.47
72612;BME280;60655;52.182;4.474;2022-10-30T05:08:26;101726.84;;;14.22;87.41
72612;BME280;60655;52.182;4.474;2022-10-30T05:10:28;101727.78;;;14.09;88.29
72612;BME280;60655;52.182;4.474;2022-10-30T05:12:28;101734.91;;;14.15;88.59
72612;BME280;60655;52.182;4.474;2022-10-30T05:14:31;101724.81;;;14.17;87.39
72612;BME280;60655;52.182;4.474;2022-10-30T05:16:32;101698.78;;;14.13;87.19
72612;BME280;60655;52.182;4.474;2022-10-30T05:18:34;101726.84;;;14.22;87.10
72612;BME280;60655;52.182;4.474;2022-10-30T05:20:35;101703.81;;;13.96;87.71
72612;BME280;60655;52.182;4.474;2022-10-30T05:22:36;101720.09;;;14.19;87.49
72612;BME280;60655;52.182;4.474;2022-10-30T05:24:37;101709.34;;;14.01;88.07
72612;BME280;60655;52.182;4.474;2022-10-30T05:26:38;101722.91;;;14.00;87.93
72612;BME280;60655;52.182;4.474;2022-10-30T05:28:39;101719.69;;;13.91;88.72
72612;BME280;60655;52.182;4.474;2022-10-30T05:30:42;101733.56;;;14.06;88.25
72612;BME280;60655;52.182;4.474;2022-10-30T05:32:43;101732.13;;;14.04;88.11
72612;BME280;60655;52.182;4.474;2022-10-30T05:34:44;101716.59;;;13.94;88.20
72612;BME280;60655;52.182;4.474;2022-10-30T05:36:45;101721.53;;;13.91;88.92
72612;BME280;60655;52.182;4.474;2022-10-30T05:38:47;101733.16;;;14.03;88.85
72612;BME280;60655;52.182;4.474;2022-10-30T05:40:48;101736.19;;;14.13;88.69
72612;BME280;60655;52.182;4.474;2022-10-30T05:42:49;101723.41;;;14.15;87.95
72612;BME280;60655;52.182;4.474;2022-10-30T05:44:50;101746.53;;;14.03;88.42
72612;BME280;60655;52.182;4.474;2022-10-30T05:46:52;101717.97;;;13.72;88.78
72612;BME280;60655;52.182;4.474;2022-10-30T05:48:53;101746.75;;;14.01;88.46
72612;BME280;60655;52.182;4.474;2022-10-30T05:50:57;101748.63;;;13.94;88.72
72612;BME280;60655;52.182;4.474;2022-10-30T05:53:00;101734.97;;;13.84;88.32
72612;BME280;60655;52.182;4.474;2022-10-30T05:55:01;101742.50;;;13.87;88.49
72612;BME280;60655;52.182;4.474;2022-10-30T05:57:02;101734.13;;;13.83;88.23
72612;BME280;60655;52.182;4.474;2022-10-30T05:59:03;101749.78;;;13.80;88.88
72612;BME280;60655;52.182;4.474;2022-10-30T06:01:08;101740.88;;;13.86;88.55
72612;BME280;60655;52.182;4.474;2022-10-30T06:03:10;101742.25;;;13.95;88.25
72612;BME280;60655;52.182;4.474;2022-10-30T06:05:12;101734.88;;;13.91;88.35
72612;BME280;60655;52.182;4.474;2022-10-30T06:07:13;101738.38;;;13.91;88.91
72612;BME280;60655;52.182;4.474;2022-10-30T06:09:14;101735.88;;;13.96;88.86
72612;BME280;60655;52.182;4.474;2022-10-30T06:11:15;101733.78;;;14.05;89.04
72612;BME280;60655;52.182;4.474;2022-10-30T06:13:16;101743.38;;;14.12;88.82
72612;BME280;60655;52.182;4.474;2022-10-30T06:15:17;101735.97;;;14.14;88.99
72612;BME280;60655;52.182;4.474;2022-10-30T06:17:17;101744.78;;;14.15;89.21
72612;BME280;60655;52.182;4.474;2022-10-30T06:19:18;101753.25;;;14.12;89.75
72612;BME280;60655;52.182;4.474;2022-10-30T06:21:19;101754.28;;;14.36;88.82
72612;BME280;60655;52.182;4.474;2022-10-30T06:23:20;101757.91;;;14.48;88.09
72612;BME280;60655;52.182;4.474;2022-10-30T06:25:22;101757.31;;;14.46;88.06
72612;BME280;60655;52.182;4.474;2022-10-30T06:27:23;101758.00;;;14.35;87.50
72612;BME280;60655;52.182;4.474;2022-10-30T06:29:24;101758.88;;;14.29;87.84
72612;BME280;60655;52.182;4.474;2022-10-30T06:31:25;101758.06;;;14.28;88.22
72612;BME280;60655;52.182;4.474;2022-10-30T06:33:26;101757.41;;;14.33;88.63
72612;BME280;60655;52.182;4.474;2022-10-30T06:35:27;101763.56;;;14.33;88.72
72612;BME280;60655;52.182;4.474;2022-10-30T06:37:28;101764.59;;;14.32;88.67
72612;BME280;60655;52.182;4.474;2022-10-30T06:39:30;101750.41;;;14.32;88.78
72612;BME280;60655;52.182;4.474;2022-10-30T06:41:30;101748.31;;;14.40;88.58
72612;BME280;60655;52.182;4.474;2022-10-30T06:43:33;101748.13;;;14.42;88.68
72612;BME280;60655;52.182;4.474;2022-10-30T06:45:34;101721.06;;;14.25;88.39
72612;BME280;60655;52.182;4.474;2022-10-30T06:47:36;101751.59;;;14.42;88.41
72612;BME280;60655;52.182;4.474;2022-10-30T06:49:37;101754.19;;;14.49;87.97
72612;BME280;60655;52.182;4.474;2022-10-30T06:51:39;101749.28;;;14.46;88.08
72612;BME280;60655;52.182;4.474;2022-10-30T06:53:40;101751.31;;;14.50;88.02
72612;BME280;60655;52.182;4.474;2022-10-30T06:55:41;101749.88;;;14.48;88.65
72612;BME280;60655;52.182;4.474;2022-10-30T06:57:42;101741.81;;;14.55;88.04
72612;BME280;60655;52.182;4.474;2022-10-30T06:59:43;101742.41;;;14.57;88.01
72612;BME280;60655;52.182;4.474;2022-10-30T07:01:44;101747.53;;;14.58;88.06
72612;BME280;60655;52.182;4.474;2022-10-30T07:03:45;101742.78;;;14.60;87.95
72612;BME280;60655;52.182;4.474;2022-10-30T07:05:46;101742.91;;;14.72;87.46
72612;BME280;60655;52.182;4.474;2022-10-30T07:07:47;101747.94;;;14.80;87.50
72612;BME280;60655;52.182;4.474;2022-10-30T07:09:48;101741.81;;;14.73;87.71
72612;BME280;60655;52.182;4.474;2022-10-30T07:11:49;101714.84;;;14.56;88.06
72612;BME280;60655;52.182;4.474;2022-10-30T07:13:50;101748.38;;;14.77;87.92
72612;BME280;60655;52.182;4.474;2022-10-30T07:15:51;101757.66;;;14.74;88.28
72612;BME280;60655;52.182;4.474;2022-10-30T07:18:02;101757.31;;;14.71;88.14
72612;BME280;60655;52.182;4.474;2022-10-30T07:20:04;101751.88;;;14.77;88.04
72612;BME280;60655;52.182;4.474;2022-10-30T07:22:05;101759.63;;;14.85;87.70
72612;BME280;60655;52.182;4.474;2022-10-30T07:24:06;101750.25;;;14.95;87.37
72612;BME280;60655;52.182;4.474;2022-10-30T07:26:07;101739.25;;;15.03;86.71
72612;BME280;60655;52.182;4.474;2022-10-30T07:28:08;101754.94;;;14.99;86.90
72612;BME280;60655;52.182;4.474;2022-10-30T07:30:11;101746.84;;;14.88;87.38
72612;BME280;60655;52.182;4.474;2022-10-30T07:32:12;101748.63;;;14.94;87.50
72612;BME280;60655;52.182;4.474;2022-10-30T07:34:13;101751.69;;;14.97;87.24
72612;BME280;60655;52.182;4.474;2022-10-30T07:36:14;101761.84;;;15.07;86.79
72612;BME280;60655;52.182;4.474;2022-10-30T07:38:15;101751.53;;;14.92;86.83
72612;BME280;60655;52.182;4.474;2022-10-30T07:40:17;101761.94;;;15.00;87.08
72612;BME280;60655;52.182;4.474;2022-10-30T07:42:18;101769.97;;;15.00;87.34
72612;BME280;60655;52.182;4.474;2022-10-30T07:44:21;101762.00;;;15.12;86.38
72612;BME280;60655;52.182;4.474;2022-10-30T07:46:22;101771.06;;;15.11;86.57
72612;BME280;60655;52.182;4.474;2022-10-30T07:48:23;101753.66;;;15.02;86.85
72612;BME280;60655;52.182;4.474;2022-10-30T07:50:24;101749.13;;;15.02;87.08
72612;BME280;60655;52.182;4.474;2022-10-30T07:52:30;101756.94;;;15.22;86.67
72612;BME280;60655;52.182;4.474;2022-10-30T07:54:32;101756.50;;;15.25;86.52
72612;BME280;60655;52.182;4.474;2022-10-30T07:56:33;101757.44;;;15.31;86.46
72612;BME280;60655;52.182;4.474;2022-10-30T07:58:34;101750.72;;;15.28;86.51
72612;BME280;60655;52.182;4.474;2022-10-30T08:00:35;101757.00;;;15.34;86.15
72612;BME280;60655;52.182;4.474;2022-10-30T08:02:36;101758.63;;;15.35;86.43
72612;BME280;60655;52.182;4.474;2022-10-30T08:04:38;101756.63;;;15.48;85.97
72612;BME280;60655;52.182;4.474;2022-10-30T08:06:39;101772.84;;;15.53;85.85
72612;BME280;60655;52.182;4.474;2022-10-30T08:08:40;101775.75;;;15.52;85.97
72612;BME280;60655;52.182;4.474;2022-10-30T08:10:43;101770.97;;;15.54;85.91
72612;BME280;60655;52.182;4.474;2022-10-30T08:12:44;101777.78;;;15.57;85.91
72612;BME280;60655;52.182;4.474;2022-10-30T08:14:45;101773.72;;;15.66;85.42
72612;BME280;60655;52.182;4.474;2022-10-30T08:16:47;101774.38;;;15.61;85.59
72612;BME280;60655;52.182;4.474;2022-10-30T08:18:50;101773.56;;;15.61;85.78
72612;BME280;60655;52.182;4.474;2022-10-30T08:20:51;101777.22;;;15.66;85.67
72612;BME280;60655;52.182;4.474;2022-10-30T08:22:56;101765.81;;;15.71;85.25
72612;BME280;60655;52.182;4.474;2022-10-30T08:24:57;101780.69;;;15.85;84.74
72612;BME280;60655;52.182;4.474;2022-10-30T08:26:58;101782.84;;;15.76;84.76
72612;BME280;60655;52.182;4.474;2022-10-30T08:28:59;101785.53;;;15.76;84.86
72612;BME280;60655;52.182;4.474;2022-10-30T08:31:00;101796.03;;;15.78;85.16
72612;BME280;60655;52.182;4.474;2022-10-30T08:33:04;101787.03;;;15.72;85.31
72612;BME280;60655;52.182;4.474;2022-10-30T08:35:06;101790.06;;;15.76;85.29
72612;BME280;60655;52.182;4.474;2022-10-30T08:37:07;101785.97;;;15.73;85.00
72612;BME280;60655;52.182;4.474;2022-10-30T08:39:11;101774.69;;;15.71;84.74
72612;BME280;60655;52.182;4.474;2022-10-30T08:41:12;101781.34;;;15.80;84.74
72612;BME280;60655;52.182;4.474;2022-10-30T08:43:13;101775.19;;;15.80;84.69
72612;BME280;60655;52.182;4.474;2022-10-30T08:45:14;101755.34;;;15.69;84.66
72612;BME280;60655;52.182;4.474;2022-10-30T08:47:15;101778.22;;;15.83;84.55
72612;BME280;60655;52.182;4.474;2022-10-30T08:49:16;101781.38;;;15.92;84.47
72612;BME280;60655;52.182;4.474;2022-10-30T08:51:17;101781.84;;;15.89;84.48
72612;BME280;60655;52.182;4.474;2022-10-30T08:53:19;101784.41;;;15.84;84.83
72612;BME280;60655;52.182;4.474;2022-10-30T08:55:20;101790.38;;;15.98;84.01
72612;BME280;60655;52.182;4.474;2022-10-30T08:57:21;101778.34;;;15.88;84.59
72612;BME280;60655;52.182;4.474;2022-10-30T08:59:22;101775.94;;;15.99;84.16
72612;BME280;60655;52.182;4.474;2022-10-30T09:01:23;101770.56;;;15.99;84.07
72612;BME280;60655;52.182;4.474;2022-10-30T09:03:24;101798.19;;;15.99;84.43
72612;BME280;60655;52.182;4.474;2022-10-30T09:05:25;101791.47;;;16.08;84.29
72612;BME280;60655;52.182;4.474;2022-10-30T09:07:26;101788.94;;;16.13;84.27
72612;BME280;60655;52.182;4.474;2022-10-30T09:09:27;101787.97;;;16.19;83.88
72612;BME280;60655;52.182;4.474;2022-10-30T09:11:28;101772.94;;;16.07;84.88
72612;BME280;60655;52.182;4.474;2022-10-30T09:13:29;101787.53;;;16.23;84.51
72612;BME280;60655;52.182;4.474;2022-10-30T09:15:30;101789.25;;;16.17;84.56
72612;BME280;60655;52.182;4.474;2022-10-30T09:17:31;101771.91;;;16.19;84.22
72612;BME280;60655;52.182;4.474;2022-10-30T09:19:32;101783.09;;;16.28;84.18
72612;BME280;60655;52.182;4.474;2022-10-30T09:21:33;101787.88;;;16.26;84.68
72612;BME280;60655;52.182;4.474;2022-10-30T09:23:35;101793.06;;;16.39;83.84
72612;BME280;60655;52.182;4.474;2022-10-30T09:25:36;101789.31;;;16.40;83.72
72612;BME280;60655;52.182;4.474;2022-10-30T09:27:38;101787.47;;;16.41;84.14
72612;BME280;60655;52.182;4.474;2022-10-30T09:29:39;101797.00;;;16.48;84.00
72612;BME280;60655;52.182;4.474;2022-10-30T09:31:40;101796.41;;;16.46;84.40
72612;BME280;60655;52.182;4.474;2022-10-30T09:33:42;101788.84;;;16.55;84.32
72612;BME280;60655;52.182;4.474;2022-10-30T09:35:43;101795.09;;;16.67;84.03
72612;BME280;60655;52.182;4.474;2022-10-30T09:37:44;101785.28;;;16.73;83.81
72612;BME280;60655;52.182;4.474;2022-10-30T09:39:45;101784.47;;;16.84;83.14
72612;BME280;60655;52.182;4.474;2022-10-30T09:44:49;101790.63;;;16.84;83.04
72612;BME280;60655;52.182;4.474;2022-10-30T09:51:46;101791.19;;;17.10;81.82
72612;BME280;60655;52.182;4.474;2022-10-30T09:56:14;101791.09;;;17.05;81.78
72612;BME280;60655;52.182;4.474;2022-10-30T09:58:29;101791.78;;;17.12;81.57
72612;BME280;60655;52.182;4.474;2022-10-30T10:00:38;101790.38;;;17.21;81.47
72612;BME280;60655;52.182;4.474;2022-10-30T10:02:52;101781.94;;;17.29;81.56
72612;BME280;60655;52.182;4.474;2022-10-30T10:05:00;101781.38;;;17.27;81.29
72612;BME280;60655;52.182;4.474;2022-10-30T10:07:08;101777.06;;;17.26;81.44
72612;BME280;60655;52.182;4.474;2022-10-30T10:11:21;101759.53;;;17.24;81.25
72612;BME280;60655;52.182;4.474;2022-10-30T10:13:37;101779.22;;;17.41;81.52
72612;BME280;60655;52.182;4.474;2022-10-30T10:15:52;101771.41;;;17.39;81.50
72612;BME280;60655;52.182;4.474;2022-10-30T10:17:54;101772.41;;;17.50;80.68
72612;BME280;60655;52.182;4.474;2022-10-30T10:20:00;101782.38;;;17.78;79.69
72612;BME280;60655;52.182;4.474;2022-10-30T10:22:04;101776.56;;;17.69;79.76
72612;BME280;60655;52.182;4.474;2022-10-30T10:24:18;101777.81;;;17.78;79.43
72612;BME280;60655;52.182;4.474;2022-10-30T10:30:58;101782.50;;;17.83;79.92
72612;BME280;60655;52.182;4.474;2022-10-30T10:47:00;101756.47;;;18.17;78.18
72612;BME280;60655;52.182;4.474;2022-10-30T10:51:37;101769.09;;;18.33;77.31
72612;BME280;60655;52.182;4.474;2022-10-30T10:53:52;101765.44;;;18.39;77.69
72612;BME280;60655;52.182;4.474;2022-10-30T10:55:57;101758.41;;;18.38;77.44
72612;BME280;60655;52.182;4.474;2022-10-30T10:58:06;101773.00;;;18.42;77.03
72612;BME280;60655;52.182;4.474;2022-10-30T11:00:20;101768.00;;;18.51;77.04
72612;BME280;60655;52.182;4.474;2022-10-30T11:02:59;101764.91;;;18.59;76.57
72612;BME280;60655;52.182;4.474;2022-10-30T11:05:33;101755.31;;;18.46;76.08
72612;BME280;60655;52.182;4.474;2022-10-30T11:07:38;101755.31;;;18.46;75.61
72612;BME280;60655;52.182;4.474;2022-10-30T11:09:40;101741.91;;;18.51;75.95
72612;BME280;60655;52.182;4.474;2022-10-30T11:11:42;101743.53;;;18.52;76.46
72612;BME280;60655;52.182;4.474;2022-10-30T11:13:46;101744.38;;;18.53;76.27
72612;BME280;60655;52.182;4.474;2022-10-30T11:18:16;101729.94;;;18.59;76.89
72612;BME280;60655;52.182;4.474;2022-10-30T11:20:21;101738.84;;;18.60;76.81
72612;BME280;60655;52.182;4.474;2022-10-30T11:22:32;101735.41;;;18.64;76.93
72612;BME280;60655;52.182;4.474;2022-10-30T11:24:36;101739.94;;;18.80;76.57
72612;BME280;60655;52.182;4.474;2022-10-30T11:26:37;101723.28;;;18.83;76.00
72612;BME280;60655;52.182;4.474;2022-10-30T11:28:41;101729.88;;;18.93;75.51
72612;BME280;60655;52.182;4.474;2022-10-30T11:30:45;101736.50;;;18.85;75.32
72612;BME280;60655;52.182;4.474;2022-10-30T11:32:46;101731.69;;;18.87;74.85
72612;BME280;60655;52.182;4.474;2022-10-30T11:35:18;101731.38;;;18.83;75.40
72612;BME280;60655;52.182;4.474;2022-10-30T11:37:33;101735.19;;;18.87;74.93
72612;BME280;60655;52.182;4.474;2022-10-30T11:39:34;101715.78;;;18.85;75.44
72612;BME280;60655;52.182;4.474;2022-10-30T11:41:37;101726.06;;;18.88;75.23